sensor_id;sensor_type;location;lat;lon;timestamp;P1;durP1;ratioP1;P2;durP2;ratioP2
11935;SDS011;6027;48.576;9.180;2023-04-05T00:00:57;10.23;;;7.40;;
11935;SDS011;6027;48.576;9.180;2023-04-05T00:03:23;7.03;;;6.13;;
11935;SDS011;6027;48.576;9.180;2023-04-05T00:05:49;7.20;;;6.30;;
11935;SDS011;6027;48.576;9.180;2023-04-05T00:08:15;7.33;;;6.43;;
11935;SDS011;6027;48.576;9.180;2023-04-05T00:10:51;7.60;;;5.87;;
11935;SDS011;6027;48.576;9.180;2023-04-05T00:13:16;6.73;;;5.83;;
11935;SDS011;6027;48.576;9.180;2023-04-05T00:15:42;6.50;;;5.67;;
11935;SDS011;6027;48.576;9.180;2023-04-05T00:18:08;7.60;;;5.83;;
11935;SDS011;6027;48.576;9.180;2023-04-05T00:20:45;6.33;;;5.40;;
11935;SDS011;6027;48.576;9.180;2023-04-05T00:23:17;7.60;;;5.47;;
11935;SDS011;6027;48.576;9.180;2023-04-05T00:25:43;8.27;;;5.27;;
11935;SDS011;6027;48.576;9.180;2023-04-05T00:28:09;6.13;;;5.23;;
11935;SDS011;6027;48.576;9.180;2023-04-05T00:30:35;6.20;;;5.53;;
11935;SDS011;6027;48.576;9.180;2023-04-05T00:33:00;6.37;;;4.47;;
11935;SDS011;6027;48.576;9.180;2023-04-05T00:35:26;6.00;;;5.30;;
11935;SDS011;6027;48.576;9.180;2023-04-05T00:37:52;7.00;;;5.23;;
11935;SDS011;6027;48.576;9.180;2023-04-05T00:40:17;5.50;;;4.83;;
11935;SDS011;6027;48.576;9.180;2023-04-05T00:42:43;6.93;;;5.20;;
11935;SDS011;6027;48.576;9.180;2023-04-05T00:45:08;9.27;;;5.00;;
11935;SDS011;6027;48.576;9.180;2023-04-05T00:47:34;5.80;;;5.17;;
11935;SDS011;6027;48.576;9.180;2023-04-05T00:50:01;5.70;;;5.20;;
11935;SDS011;6027;48.576;9.180;2023-04-05T00:52:27;9.20;;;5.57;;
11935;SDS011;6027;48.576;9.180;2023-04-05T00:54:54;7.57;;;5.33;;
11935;SDS011;6027;48.576;9.180;2023-04-05T00:57:21;6.20;;;4.83;;
11935;SDS011;6027;48.576;9.180;2023-04-05T00:59:49;7.90;;;5.10;;
11935;SDS011;6027;48.576;9.180;2023-04-05T01:02:31;7.07;;;5.20;;
11935;SDS011;6027;48.576;9.180;2023-04-05T01:05:01;5.57;;;5.03;;
11935;SDS011;6027;48.576;9.180;2023-04-05T01:10:18;5.67;;;4.80;;
11935;SDS011;6027;48.576;9.180;2023-04-05T01:12:47;7.63;;;5.73;;
11935;SDS011;6027;48.576;9.180;2023-04-05T01:15:13;7.27;;;5.10;;
11935;SDS011;6027;48.576;9.180;2023-04-05T01:17:38;6.93;;;5.03;;
11935;SDS011;6027;48.576;9.180;2023-04-05T01:20:07;40.73;;;28.57;;
11935;SDS011;6027;48.576;9.180;2023-04-05T01:22:59;20.67;;;15.07;;
11935;SDS011;6027;48.576;9.180;2023-04-05T01:31:19;7.40;;;5.70;;
11935;SDS011;6027;48.576;9.180;2023-04-05T01:34:08;6.93;;;6.10;;
11935;SDS011;6027;48.576;9.180;2023-04-05T01:36:49;8.10;;;6.60;;
11935;SDS011;6027;48.576;9.180;2023-04-05T01:39:21;11.87;;;8.70;;
11935;SDS011;6027;48.576;9.180;2023-04-05T01:41:47;11.43;;;8.67;;
11935;SDS011;6027;48.576;9.180;2023-04-05T01:44:13;14.87;;;9.57;;
11935;SDS011;6027;48.576;9.180;2023-04-05T01:46:38;12.10;;;8.80;;
11935;SDS011;6027;48.576;9.180;2023-04-05T01:49:04;9.60;;;7.30;;
11935;SDS011;6027;48.576;9.180;2023-04-05T01:51:29;9.13;;;6.80;;
11935;SDS011;6027;48.576;9.180;2023-04-05T01:53:55;7.50;;;6.03;;
11935;SDS011;6027;48.576;9.180;2023-04-05T01:56:21;6.70;;;5.60;;
11935;SDS011;6027;48.576;9.180;2023-04-05T01:58:46;7.93;;;5.27;;
11935;SDS011;6027;48.576;9.180;2023-04-05T02:01:12;8.10;;;5.57;;
11935;SDS011;6027;48.576;9.180;2023-04-05T02:06:05;6.80;;;5.50;;
11935;SDS011;6027;48.576;9.180;2023-04-05T02:08:30;6.57;;;5.60;;
11935;SDS011;6027;48.576;9.180;2023-04-05T02:10:56;6.83;;;5.70;;
11935;SDS011;6027;48.576;9.180;2023-04-05T02:13:21;6.33;;;5.73;;
11935;SDS011;6027;48.576;9.180;2023-04-05T02:15:48;6.53;;;5.73;;
11935;SDS011;6027;48.576;9.180;2023-04-05T02:18:14;7.37;;;5.97;;
11935;SDS011;6027;48.576;9.180;2023-04-05T02:20:40;8.20;;;5.97;;
11935;SDS011;6027;48.576;9.180;2023-04-05T02:23:05;8.60;;;5.90;;
11935;SDS011;6027;48.576;9.180;2023-04-05T02:25:32;9.33;;;5.83;;
11935;SDS011;6027;48.576;9.180;2023-04-05T02:27:57;6.57;;;5.80;;
11935;SDS011;6027;48.576;9.180;2023-04-05T02:30:23;9.30;;;5.83;;
11935;SDS011;6027;48.576;9.180;2023-04-05T02:32:48;7.27;;;5.60;;
11935;SDS011;6027;48.576;9.180;2023-04-05T02:35:14;8.30;;;6.30;;
11935;SDS011;6027;48.576;9.180;2023-04-05T02:37:41;7.30;;;6.10;;
11935;SDS011;6027;48.576;9.180;2023-04-05T02:40:07;6.60;;;5.80;;
11935;SDS011;6027;48.576;9.180;2023-04-05T02:42:39;6.43;;;5.53;;
11935;SDS011;6027;48.576;9.180;2023-04-05T02:45:04;6.43;;;5.60;;
11935;SDS011;6027;48.576;9.180;2023-04-05T02:47:32;9.13;;;5.30;;
11935;SDS011;6027;48.576;9.180;2023-04-05T02:49:58;6.87;;;5.87;;
11935;SDS011;6027;48.576;9.180;2023-04-05T02:52:23;5.63;;;4.97;;
11935;SDS011;6027;48.576;9.180;2023-04-05T02:54:49;7.83;;;5.70;;
11935;SDS011;6027;48.576;9.180;2023-04-05T02:57:14;7.07;;;5.23;;
11935;SDS011;6027;48.576;9.180;2023-04-05T02:59:40;5.87;;;5.27;;
11935;SDS011;6027;48.576;9.180;2023-04-05T03:02:08;6.60;;;5.27;;
11935;SDS011;6027;48.576;9.180;2023-04-05T03:04:34;9.20;;;5.70;;
11935;SDS011;6027;48.576;9.180;2023-04-05T03:07:00;6.73;;;6.03;;
11935;SDS011;6027;48.576;9.180;2023-04-05T03:09:27;7.17;;;5.83;;
11935;SDS011;6027;48.576;9.180;2023-04-05T03:12:03;6.27;;;5.10;;
11935;SDS011;6027;48.576;9.180;2023-04-05T03:14:29;7.30;;;5.53;;
11935;SDS011;6027;48.576;9.180;2023-04-05T03:16:55;6.60;;;5.73;;
11935;SDS011;6027;48.576;9.180;2023-04-05T03:19:21;7.83;;;6.10;;
11935;SDS011;6027;48.576;9.180;2023-04-05T03:21:48;8.30;;;6.10;;
11935;SDS011;6027;48.576;9.180;2023-04-05T03:24:14;6.50;;;5.90;;
11935;SDS011;6027;48.576;9.180;2023-04-05T03:26:42;6.37;;;5.77;;
11935;SDS011;6027;48.576;9.180;2023-04-05T03:29:08;6.83;;;5.83;;
11935;SDS011;6027;48.576;9.180;2023-04-05T03:31:33;9.27;;;5.93;;
11935;SDS011;6027;48.576;9.180;2023-04-05T03:33:58;7.20;;;6.40;;
11935;SDS011;6027;48.576;9.180;2023-04-05T03:36:24;8.10;;;6.27;;
11935;SDS011;6027;48.576;9.180;2023-04-05T03:38:52;6.63;;;5.93;;
11935;SDS011;6027;48.576;9.180;2023-04-05T03:41:20;8.13;;;7.07;;
11935;SDS011;6027;48.576;9.180;2023-04-05T03:43:45;11.43;;;9.27;;
11935;SDS011;6027;48.576;9.180;2023-04-05T03:46:10;14.57;;;10.57;;
11935;SDS011;6027;48.576;9.180;2023-04-05T03:48:36;12.20;;;10.23;;
11935;SDS011;6027;48.576;9.180;2023-04-05T03:51:05;12.47;;;9.67;;
11935;SDS011;6027;48.576;9.180;2023-04-05T03:53:31;11.87;;;8.97;;
11935;SDS011;6027;48.576;9.180;2023-04-05T03:55:56;9.50;;;8.33;;
11935;SDS011;6027;48.576;9.180;2023-04-05T03:58:21;8.63;;;7.47;;
11935;SDS011;6027;48.576;9.180;2023-04-05T04:00:47;8.13;;;6.00;;
11935;SDS011;6027;48.576;9.180;2023-04-05T04:03:13;7.60;;;6.23;;
11935;SDS011;6027;48.576;9.180;2023-04-05T04:05:39;7.17;;;6.00;;
11935;SDS011;6027;48.576;9.180;2023-04-05T04:08:04;7.83;;;6.43;;
11935;SDS011;6027;48.576;9.180;2023-04-05T04:10:30;8.97;;;6.23;;
11935;SDS011;6027;48.576;9.180;2023-04-05T04:12:56;7.07;;;6.20;;
11935;SDS011;6027;48.576;9.180;2023-04-05T04:15:22;7.00;;;6.10;;
11935;SDS011;6027;48.576;9.180;2023-04-05T04:17:47;8.70;;;5.93;;
11935;SDS011;6027;48.576;9.180;2023-04-05T04:20:13;7.53;;;6.27;;
11935;SDS011;6027;48.576;9.180;2023-04-05T04:22:38;8.33;;;6.33;;
11935;SDS011;6027;48.576;9.180;2023-04-05T04:25:08;17.00;;;11.10;;
11935;SDS011;6027;48.576;9.180;2023-04-05T04:27:40;9.50;;;7.57;;
11935;SDS011;6027;48.576;9.180;2023-04-05T04:30:08;8.20;;;6.40;;
11935;SDS011;6027;48.576;9.180;2023-04-05T04:32:35;9.43;;;7.50;;
11935;SDS011;6027;48.576;9.180;2023-04-05T04:35:26;10.20;;;6.60;;
11935;SDS011;6027;48.576;9.180;2023-04-05T04:37:57;6.90;;;6.20;;
11935;SDS011;6027;48.576;9.180;2023-04-05T04:40:26;7.57;;;6.37;;
11935;SDS011;6027;48.576;9.180;2023-04-05T04:45:30;6.80;;;6.10;;
11935;SDS011;6027;48.576;9.180;2023-04-05T04:48:02;7.53;;;5.90;;
11935;SDS011;6027;48.576;9.180;2023-04-05T04:50:29;8.47;;;5.47;;
11935;SDS011;6027;48.576;9.180;2023-04-05T04:52:57;6.93;;;5.50;;
11935;SDS011;6027;48.576;9.180;2023-04-05T04:55:23;7.63;;;6.00;;
11935;SDS011;6027;48.576;9.180;2023-04-05T04:57:50;7.07;;;5.40;;
11935;SDS011;6027;48.576;9.180;2023-04-05T05:00:17;6.97;;;6.00;;
11935;SDS011;6027;48.576;9.180;2023-04-05T05:02:42;8.53;;;6.10;;
11935;SDS011;6027;48.576;9.180;2023-04-05T05:05:09;7.77;;;6.27;;
11935;SDS011;6027;48.576;9.180;2023-04-05T05:07:35;9.00;;;7.40;;
11935;SDS011;6027;48.576;9.180;2023-04-05T05:10:02;10.27;;;7.33;;
11935;SDS011;6027;48.576;9.180;2023-04-05T05:12:28;8.80;;;6.83;;
11935;SDS011;6027;48.576;9.180;2023-04-05T05:14:55;11.53;;;8.07;;
11935;SDS011;6027;48.576;9.180;2023-04-05T05:17:21;7.87;;;7.07;;
11935;SDS011;6027;48.576;9.180;2023-04-05T05:19:47;7.40;;;6.53;;
11935;SDS011;6027;48.576;9.180;2023-04-05T05:22:13;10.53;;;6.27;;
11935;SDS011;6027;48.576;9.180;2023-04-05T05:24:38;10.37;;;6.60;;
11935;SDS011;6027;48.576;9.180;2023-04-05T05:27:03;9.33;;;6.20;;
11935;SDS011;6027;48.576;9.180;2023-04-05T05:29:29;8.67;;;6.40;;
11935;SDS011;6027;48.576;9.180;2023-04-05T05:31:55;9.20;;;5.87;;
11935;SDS011;6027;48.576;9.180;2023-04-05T05:34:21;7.47;;;5.90;;
11935;SDS011;6027;48.576;9.180;2023-04-05T05:36:46;7.80;;;6.23;;
11935;SDS011;6027;48.576;9.180;2023-04-05T05:41:39;10.87;;;6.30;;
11935;SDS011;6027;48.576;9.180;2023-04-05T05:44:05;10.17;;;7.10;;
11935;SDS011;6027;48.576;9.180;2023-04-05T05:46:30;10.40;;;6.50;;
11935;SDS011;6027;48.576;9.180;2023-04-05T05:48:56;14.27;;;7.20;;
11935;SDS011;6027;48.576;9.180;2023-04-05T05:51:21;10.77;;;6.70;;
11935;SDS011;6027;48.576;9.180;2023-04-05T05:53:47;12.40;;;7.27;;
11935;SDS011;6027;48.576;9.180;2023-04-05T05:56:12;11.47;;;7.67;;
11935;SDS011;6027;48.576;9.180;2023-04-05T05:58:38;8.73;;;7.17;;
11935;SDS011;6027;48.576;9.180;2023-04-05T06:01:04;8.63;;;6.60;;
11935;SDS011;6027;48.576;9.180;2023-04-05T06:03:31;9.93;;;6.90;;
11935;SDS011;6027;48.576;9.180;2023-04-05T06:05:57;8.87;;;7.30;;
11935;SDS011;6027;48.576;9.180;2023-04-05T06:08:24;11.27;;;8.00;;
11935;SDS011;6027;48.576;9.180;2023-04-05T06:10:52;14.53;;;7.80;;
11935;SDS011;6027;48.576;9.180;2023-04-05T06:13:18;10.17;;;8.33;;
11935;SDS011;6027;48.576;9.180;2023-04-05T06:15:43;14.47;;;10.33;;
11935;SDS011;6027;48.576;9.180;2023-04-05T06:18:09;12.53;;;10.30;;
11935;SDS011;6027;48.576;9.180;2023-04-05T06:20:35;15.77;;;11.00;;
11935;SDS011;6027;48.576;9.180;2023-04-05T06:23:08;12.63;;;9.33;;
11935;SDS011;6027;48.576;9.180;2023-04-05T06:25:33;14.60;;;9.13;;
11935;SDS011;6027;48.576;9.180;2023-04-05T06:28:03;13.73;;;10.77;;
11935;SDS011;6027;48.576;9.180;2023-04-05T06:30:29;17.07;;;10.17;;
11935;SDS011;6027;48.576;9.180;2023-04-05T06:32:55;13.67;;;9.90;;
11935;SDS011;6027;48.576;9.180;2023-04-05T06:35:21;10.83;;;8.90;;
11935;SDS011;6027;48.576;9.180;2023-04-05T06:37:48;13.73;;;10.57;;
11935;SDS011;6027;48.576;9.180;2023-04-05T06:40:13;9.77;;;8.17;;
11935;SDS011;6027;48.576;9.180;2023-04-05T06:42:39;8.87;;;7.67;;
11935;SDS011;6027;48.576;9.180;2023-04-05T06:45:05;9.10;;;8.20;;
11935;SDS011;6027;48.576;9.180;2023-04-05T06:47:34;11.00;;;8.70;;
11935;SDS011;6027;48.576;9.180;2023-04-05T06:50:01;10.43;;;8.53;;
11935;SDS011;6027;48.576;9.180;2023-04-05T06:52:28;10.67;;;8.20;;
11935;SDS011;6027;48.576;9.180;2023-04-05T06:54:53;10.47;;;8.10;;
11935;SDS011;6027;48.576;9.180;2023-04-05T06:57:20;12.67;;;9.73;;
11935;SDS011;6027;48.576;9.180;2023-04-05T06:59:45;10.90;;;8.27;;
11935;SDS011;6027;48.576;9.180;2023-04-05T07:02:11;10.30;;;8.90;;
11935;SDS011;6027;48.576;9.180;2023-04-05T07:04:37;8.50;;;7.60;;
11935;SDS011;6027;48.576;9.180;2023-04-05T07:07:03;8.83;;;7.47;;
11935;SDS011;6027;48.576;9.180;2023-04-05T07:09:33;8.87;;;7.83;;
11935;SDS011;6027;48.576;9.180;2023-04-05T07:11:59;7.13;;;6.43;;
11935;SDS011;6027;48.576;9.180;2023-04-05T07:14:28;10.27;;;9.17;;
11935;SDS011;6027;48.576;9.180;2023-04-05T07:16:54;9.97;;;8.17;;
11935;SDS011;6027;48.576;9.180;2023-04-05T07:19:20;8.97;;;7.07;;
11935;SDS011;6027;48.576;9.180;2023-04-05T07:21:45;7.10;;;6.20;;
11935;SDS011;6027;48.576;9.180;2023-04-05T07:24:11;9.30;;;7.50;;
11935;SDS011;6027;48.576;9.180;2023-04-05T07:26:37;6.97;;;6.27;;
11935;SDS011;6027;48.576;9.180;2023-04-05T07:29:02;9.00;;;7.37;;
11935;SDS011;6027;48.576;9.180;2023-04-05T07:31:29;9.30;;;6.40;;
11935;SDS011;6027;48.576;9.180;2023-04-05T07:33:55;7.47;;;5.57;;
11935;SDS011;6027;48.576;9.180;2023-04-05T07:36:22;6.43;;;5.10;;
11935;SDS011;6027;48.576;9.180;2023-04-05T07:38:48;8.20;;;5.03;;
11935;SDS011;6027;48.576;9.180;2023-04-05T07:41:13;6.80;;;5.13;;
11935;SDS011;6027;48.576;9.180;2023-04-05T07:43:40;6.37;;;5.60;;
11935;SDS011;6027;48.576;9.180;2023-04-05T07:46:06;7.73;;;5.47;;
11935;SDS011;6027;48.576;9.180;2023-04-05T07:48:31;7.17;;;5.43;;
11935;SDS011;6027;48.576;9.180;2023-04-05T07:51:04;8.00;;;6.27;;
11935;SDS011;6027;48.576;9.180;2023-04-05T07:53:31;8.30;;;6.27;;
11935;SDS011;6027;48.576;9.180;2023-04-05T07:55:56;9.07;;;6.03;;
11935;SDS011;6027;48.576;9.180;2023-04-05T07:58:23;8.07;;;6.37;;
11935;SDS011;6027;48.576;9.180;2023-04-05T08:00:49;7.60;;;6.63;;
11935;SDS011;6027;48.576;9.180;2023-04-05T08:03:17;7.57;;;6.93;;
11935;SDS011;6027;48.576;9.180;2023-04-05T08:05:42;7.83;;;6.50;;
11935;SDS011;6027;48.576;9.180;2023-04-05T08:08:08;6.57;;;5.97;;
11935;SDS011;6027;48.576;9.180;2023-04-05T08:10:38;7.53;;;6.80;;
11935;SDS011;6027;48.576;9.180;2023-04-05T08:13:04;5.97;;;5.37;;
11935;SDS011;6027;48.576;9.180;2023-04-05T08:15:34;7.60;;;6.80;;
11935;SDS011;6027;48.576;9.180;2023-04-05T08:17:59;10.27;;;8.90;;
11935;SDS011;6027;48.576;9.180;2023-04-05T08:20:25;7.70;;;6.90;;
11935;SDS011;6027;48.576;9.180;2023-04-05T08:22:50;7.30;;;6.57;;
11935;SDS011;6027;48.576;9.180;2023-04-05T08:25:16;5.60;;;5.00;;
11935;SDS011;6027;48.576;9.180;2023-04-05T08:27:41;5.47;;;4.83;;
11935;SDS011;6027;48.576;9.180;2023-04-05T08:30:07;5.67;;;5.07;;
11935;SDS011;6027;48.576;9.180;2023-04-05T08:32:33;5.60;;;5.10;;
11935;SDS011;6027;48.576;9.180;2023-04-05T08:34:59;6.63;;;5.30;;
11935;SDS011;6027;48.576;9.180;2023-04-05T08:37:25;6.30;;;5.30;;
11935;SDS011;6027;48.576;9.180;2023-04-05T08:39:51;6.17;;;5.20;;
11935;SDS011;6027;48.576;9.180;2023-04-05T08:42:17;5.70;;;5.10;;
11935;SDS011;6027;48.576;9.180;2023-04-05T08:44:56;5.40;;;4.90;;
11935;SDS011;6027;48.576;9.180;2023-04-05T08:47:22;5.47;;;4.93;;
11935;SDS011;6027;48.576;9.180;2023-04-05T08:49:48;5.83;;;4.70;;
11935;SDS011;6027;48.576;9.180;2023-04-05T08:52:13;5.03;;;4.53;;
11935;SDS011;6027;48.576;9.180;2023-04-05T08:54:39;5.23;;;4.57;;
11935;SDS011;6027;48.576;9.180;2023-04-05T08:57:06;5.13;;;4.63;;
11935;SDS011;6027;48.576;9.180;2023-04-05T08:59:31;4.30;;;3.90;;
11935;SDS011;6027;48.576;9.180;2023-04-05T09:02:01;6.33;;;4.33;;
11935;SDS011;6027;48.576;9.180;2023-04-05T09:04:31;4.47;;;3.90;;
11935;SDS011;6027;48.576;9.180;2023-04-05T09:07:03;5.03;;;3.70;;
11935;SDS011;6027;48.576;9.180;2023-04-05T09:09:34;6.50;;;4.33;;
11935;SDS011;6027;48.576;9.180;2023-04-05T09:12:05;4.10;;;3.70;;
11935;SDS011;6027;48.576;9.180;2023-04-05T09:14:32;4.13;;;3.20;;
11935;SDS011;6027;48.576;9.180;2023-04-05T09:17:00;3.70;;;3.30;;
11935;SDS011;6027;48.576;9.180;2023-04-05T09:29:36;5.77;;;3.50;;
11935;SDS011;6027;48.576;9.180;2023-04-05T09:32:05;3.70;;;3.33;;
11935;SDS011;6027;48.576;9.180;2023-04-05T09:34:33;5.53;;;2.83;;
11935;SDS011;6027;48.576;9.180;2023-04-05T09:37:01;2.70;;;2.50;;
11935;SDS011;6027;48.576;9.180;2023-04-05T09:39:35;2.47;;;2.27;;
11935;SDS011;6027;48.576;9.180;2023-04-05T09:42:11;3.53;;;2.30;;
11935;SDS011;6027;48.576;9.180;2023-04-05T09:47:18;2.77;;;2.17;;
11935;SDS011;6027;48.576;9.180;2023-04-05T09:49:45;2.70;;;2.30;;
11935;SDS011;6027;48.576;9.180;2023-04-05T09:52:17;3.77;;;2.40;;
11935;SDS011;6027;48.576;9.180;2023-04-05T09:54:43;2.77;;;2.50;;
11935;SDS011;6027;48.576;9.180;2023-04-05T09:57:09;3.60;;;2.70;;
11935;SDS011;6027;48.576;9.180;2023-04-05T09:59:35;5.10;;;2.60;;
11935;SDS011;6027;48.576;9.180;2023-04-05T10:02:00;5.70;;;3.37;;
11935;SDS011;6027;48.576;9.180;2023-04-05T10:04:37;7.90;;;5.83;;
11935;SDS011;6027;48.576;9.180;2023-04-05T10:07:03;5.83;;;2.60;;
11935;SDS011;6027;48.576;9.180;2023-04-05T10:09:28;4.20;;;3.30;;
11935;SDS011;6027;48.576;9.180;2023-04-05T10:11:54;4.05;;;3.30;;
11935;SDS011;6027;48.576;9.180;2023-04-05T10:14:23;5.20;;;3.63;;
11935;SDS011;6027;48.576;9.180;2023-04-05T10:20:16;5.18;;;3.17;;
11935;SDS011;6027;48.576;9.180;2023-04-05T10:22:32;3.95;;;3.50;;
11935;SDS011;6027;48.576;9.180;2023-04-05T10:25:10;5.60;;;3.60;;
11935;SDS011;6027;48.576;9.180;2023-04-05T10:27:52;4.10;;;3.53;;
11935;SDS011;6027;48.576;9.180;2023-04-05T10:30:23;4.78;;;3.15;;
11935;SDS011;6027;48.576;9.180;2023-04-05T10:35:47;3.97;;;3.53;;
11935;SDS011;6027;48.576;9.180;2023-04-05T10:41:51;4.93;;;4.00;;
11935;SDS011;6027;48.576;9.180;2023-04-05T10:44:31;3.97;;;3.58;;
11935;SDS011;6027;48.576;9.180;2023-04-05T10:47:00;4.38;;;3.83;;
11935;SDS011;6027;48.576;9.180;2023-04-05T10:49:31;4.13;;;3.73;;
11935;SDS011;6027;48.576;9.180;2023-04-05T10:52:01;4.82;;;3.63;;
11935;SDS011;6027;48.576;9.180;2023-04-05T10:54:28;3.40;;;3.10;;
11935;SDS011;6027;48.576;9.180;2023-04-05T10:56:56;4.20;;;3.80;;
11935;SDS011;6027;48.576;9.180;2023-04-05T10:59:22;4.95;;;3.88;;
11935;SDS011;6027;48.576;9.180;2023-04-05T11:01:50;4.25;;;3.80;;
11935;SDS011;6027;48.576;9.180;2023-04-05T11:04:17;4.65;;;3.83;;
11935;SDS011;6027;48.576;9.180;2023-04-05T11:06:43;4.10;;;3.72;;
11935;SDS011;6027;48.576;9.180;2023-04-05T11:09:18;6.50;;;4.57;;
11935;SDS011;6027;48.576;9.180;2023-04-05T11:16:47;4.60;;;3.92;;
11935;SDS011;6027;48.576;9.180;2023-04-05T11:19:17;4.20;;;3.53;;
11935;SDS011;6027;48.576;9.180;2023-04-05T11:21:43;4.40;;;3.75;;
11935;SDS011;6027;48.576;9.180;2023-04-05T11:24:10;4.70;;;3.83;;
11935;SDS011;6027;48.576;9.180;2023-04-05T11:29:04;5.88;;;3.97;;
11935;SDS011;6027;48.576;9.180;2023-04-05T11:31:33;4.60;;;4.03;;
11935;SDS011;6027;48.576;9.180;2023-04-05T11:33:59;4.10;;;3.60;;
11935;SDS011;6027;48.576;9.180;2023-04-05T11:36:37;4.05;;;3.60;;
11935;SDS011;6027;48.576;9.180;2023-04-05T11:41:45;6.35;;;3.65;;
11935;SDS011;6027;48.576;9.180;2023-04-05T11:44:12;5.95;;;4.07;;
11935;SDS011;6027;48.576;9.180;2023-04-05T11:46:40;4.75;;;4.13;;
11935;SDS011;6027;48.576;9.180;2023-04-05T11:49:07;4.20;;;3.80;;
11935;SDS011;6027;48.576;9.180;2023-04-05T11:51:32;4.57;;;4.03;;
11935;SDS011;6027;48.576;9.180;2023-04-05T11:53:58;5.30;;;3.83;;
11935;SDS011;6027;48.576;9.180;2023-04-05T11:56:23;4.25;;;3.85;;
11935;SDS011;6027;48.576;9.180;2023-04-05T11:58:48;5.30;;;3.95;;
11935;SDS011;6027;48.576;9.180;2023-04-05T12:01:14;5.97;;;4.65;;
11935;SDS011;6027;48.576;9.180;2023-04-05T12:03:41;4.70;;;3.85;;
11935;SDS011;6027;48.576;9.180;2023-04-05T12:06:07;4.15;;;3.70;;
11935;SDS011;6027;48.576;9.180;2023-04-05T12:08:42;5.18;;;4.20;;
11935;SDS011;6027;48.576;9.180;2023-04-05T12:11:14;4.88;;;3.53;;
11935;SDS011;6027;48.576;9.180;2023-04-05T12:13:41;5.45;;;3.95;;
11935;SDS011;6027;48.576;9.180;2023-04-05T12:16:07;4.40;;;4.00;;
11935;SDS011;6027;48.576;9.180;2023-04-05T12:18:36;4.80;;;4.30;;
11935;SDS011;6027;48.576;9.180;2023-04-05T12:21:08;5.35;;;4.03;;
11935;SDS011;6027;48.576;9.180;2023-04-05T12:23:35;5.18;;;4.10;;
11935;SDS011;6027;48.576;9.180;2023-04-05T12:26:01;5.60;;;3.90;;
11935;SDS011;6027;48.576;9.180;2023-04-05T12:31:36;5.30;;;3.85;;
11935;SDS011;6027;48.576;9.180;2023-04-05T12:34:03;6.20;;;3.78;;
11935;SDS011;6027;48.576;9.180;2023-04-05T12:36:29;4.32;;;3.97;;
11935;SDS011;6027;48.576;9.180;2023-04-05T12:38:58;4.10;;;3.70;;
11935;SDS011;6027;48.576;9.180;2023-04-05T12:41:30;6.32;;;3.92;;
11935;SDS011;6027;48.576;9.180;2023-04-05T12:43:57;4.38;;;3.70;;
11935;SDS011;6027;48.576;9.180;2023-04-05T12:49:19;4.40;;;3.75;;
11935;SDS011;6027;48.576;9.180;2023-04-05T12:51:45;6.53;;;4.63;;
11935;SDS011;6027;48.576;9.180;2023-04-05T12:54:21;6.80;;;4.70;;
11935;SDS011;6027;48.576;9.180;2023-04-05T12:56:51;4.00;;;3.60;;
11935;SDS011;6027;48.576;9.180;2023-04-05T12:59:21;4.80;;;3.55;;
11935;SDS011;6027;48.576;9.180;2023-04-05T13:01:48;5.25;;;3.80;;
11935;SDS011;6027;48.576;9.180;2023-04-05T13:04:13;7.32;;;4.07;;
11935;SDS011;6027;48.576;9.180;2023-04-05T13:06:38;7.03;;;3.60;;
11935;SDS011;6027;48.576;9.180;2023-04-05T13:09:04;4.20;;;3.60;;
11935;SDS011;6027;48.576;9.180;2023-04-05T13:11:29;6.35;;;3.58;;
11935;SDS011;6027;48.576;9.180;2023-04-05T13:13:56;4.10;;;3.75;;
11935;SDS011;6027;48.576;9.180;2023-04-05T13:16:21;4.10;;;3.70;;
11935;SDS011;6027;48.576;9.180;2023-04-05T13:18:46;5.38;;;3.63;;
11935;SDS011;6027;48.576;9.180;2023-04-05T13:21:12;4.25;;;3.85;;
11935;SDS011;6027;48.576;9.180;2023-04-05T13:23:38;4.30;;;3.70;;
11935;SDS011;6027;48.576;9.180;2023-04-05T13:26:05;4.32;;;3.67;;
11935;SDS011;6027;48.576;9.180;2023-04-05T13:28:30;4.22;;;3.67;;
11935;SDS011;6027;48.576;9.180;2023-04-05T13:30:57;4.28;;;3.88;;
11935;SDS011;6027;48.576;9.180;2023-04-05T13:33:22;5.90;;;4.10;;
11935;SDS011;6027;48.576;9.180;2023-04-05T13:35:48;4.20;;;3.80;;
11935;SDS011;6027;48.576;9.180;2023-04-05T13:38:13;4.03;;;3.63;;
11935;SDS011;6027;48.576;9.180;2023-04-05T13:40:39;5.32;;;4.50;;
11935;SDS011;6027;48.576;9.180;2023-04-05T13:43:05;4.25;;;3.70;;
11935;SDS011;6027;48.576;9.180;2023-04-05T13:45:31;4.15;;;3.70;;
11935;SDS011;6027;48.576;9.180;2023-04-05T13:47:56;4.32;;;3.70;;
11935;SDS011;6027;48.576;9.180;2023-04-05T13:50:22;7.22;;;3.63;;
11935;SDS011;6027;48.576;9.180;2023-04-05T13:52:48;4.28;;;3.17;;
11935;SDS011;6027;48.576;9.180;2023-04-05T13:55:15;5.15;;;3.28;;
11935;SDS011;6027;48.576;9.180;2023-04-05T13:57:41;4.07;;;3.58;;
11935;SDS011;6027;48.576;9.180;2023-04-05T14:00:06;4.22;;;3.58;;
11935;SDS011;6027;48.576;9.180;2023-04-05T14:02:32;3.80;;;3.40;;
11935;SDS011;6027;48.576;9.180;2023-04-05T14:04:58;4.43;;;3.45;;
11935;SDS011;6027;48.576;9.180;2023-04-05T14:07:23;4.10;;;3.70;;
11935;SDS011;6027;48.576;9.180;2023-04-05T14:09:49;4.63;;;3.58;;
11935;SDS011;6027;48.576;9.180;2023-04-05T14:12:14;4.07;;;3.40;;
11935;SDS011;6027;48.576;9.180;2023-04-05T14:14:40;8.57;;;3.72;;
11935;SDS011;6027;48.576;9.180;2023-04-05T14:17:05;3.35;;;3.05;;
11935;SDS011;6027;48.576;9.180;2023-04-05T14:19:31;4.65;;;3.10;;
11935;SDS011;6027;48.576;9.180;2023-04-05T14:22:00;3.42;;;3.08;;
11935;SDS011;6027;48.576;9.180;2023-04-05T14:24:26;4.97;;;4.05;;
11935;SDS011;6027;48.576;9.180;2023-04-05T14:26:51;5.90;;;3.63;;
11935;SDS011;6027;48.576;9.180;2023-04-05T14:29:17;3.88;;;3.47;;
11935;SDS011;6027;48.576;9.180;2023-04-05T14:31:43;4.10;;;3.30;;
11935;SDS011;6027;48.576;9.180;2023-04-05T14:34:09;4.25;;;3.75;;
11935;SDS011;6027;48.576;9.180;2023-04-05T14:36:34;4.28;;;3.80;;
11935;SDS011;6027;48.576;9.180;2023-04-05T14:39:00;3.75;;;3.45;;
11935;SDS011;6027;48.576;9.180;2023-04-05T14:41:25;5.40;;;3.40;;
11935;SDS011;6027;48.576;9.180;2023-04-05T14:43:53;4.68;;;3.90;;
11935;SDS011;6027;48.576;9.180;2023-04-05T14:46:19;5.07;;;3.30;;
11935;SDS011;6027;48.576;9.180;2023-04-05T14:48:45;3.92;;;3.13;;
11935;SDS011;6027;48.576;9.180;2023-04-05T14:51:10;5.30;;;3.17;;
11935;SDS011;6027;48.576;9.180;2023-04-05T14:53:36;3.38;;;2.65;;
11935;SDS011;6027;48.576;9.180;2023-04-05T14:56:01;4.75;;;3.28;;
11935;SDS011;6027;48.576;9.180;2023-04-05T14:58:27;4.35;;;3.20;;
11935;SDS011;6027;48.576;9.180;2023-04-05T15:00:53;4.78;;;3.55;;
11935;SDS011;6027;48.576;9.180;2023-04-05T15:03:20;4.25;;;3.67;;
11935;SDS011;6027;48.576;9.180;2023-04-05T15:05:46;4.43;;;3.17;;
11935;SDS011;6027;48.576;9.180;2023-04-05T15:08:13;3.97;;;3.15;;
11935;SDS011;6027;48.576;9.180;2023-04-05T15:10:39;4.55;;;3.28;;
11935;SDS011;6027;48.576;9.180;2023-04-05T15:13:06;3.50;;;3.08;;
11935;SDS011;6027;48.576;9.180;2023-04-05T15:15:32;3.15;;;2.85;;
11935;SDS011;6027;48.576;9.180;2023-04-05T15:17:58;3.17;;;2.88;;
11935;SDS011;6027;48.576;9.180;2023-04-05T15:20:23;6.05;;;2.38;;
11935;SDS011;6027;48.576;9.180;2023-04-05T15:22:49;2.75;;;2.53;;
11935;SDS011;6027;48.576;9.180;2023-04-05T15:25:15;2.97;;;2.67;;
11935;SDS011;6027;48.576;9.180;2023-04-05T15:27:40;2.90;;;2.60;;
11935;SDS011;6027;48.576;9.180;2023-04-05T15:30:06;3.78;;;2.83;;
11935;SDS011;6027;48.576;9.180;2023-04-05T15:32:32;4.43;;;3.00;;
11935;SDS011;6027;48.576;9.180;2023-04-05T15:34:58;3.00;;;2.58;;
11935;SDS011;6027;48.576;9.180;2023-04-05T15:37:25;3.28;;;2.97;;
11935;SDS011;6027;48.576;9.180;2023-04-05T15:39:51;3.10;;;2.80;;
11935;SDS011;6027;48.576;9.180;2023-04-05T15:42:16;4.15;;;3.00;;
11935;SDS011;6027;48.576;9.180;2023-04-05T15:44:44;4.45;;;3.38;;
11935;SDS011;6027;48.576;9.180;2023-04-05T15:47:10;5.38;;;3.50;;
11935;SDS011;6027;48.576;9.180;2023-04-05T15:49:36;4.80;;;3.30;;
11935;SDS011;6027;48.576;9.180;2023-04-05T15:52:01;4.10;;;3.10;;
11935;SDS011;6027;48.576;9.180;2023-04-05T15:54:27;3.38;;;3.00;;